createdAt,value
2019-04-21T00:00:17.029Z,99.90
2019-04-21T00:02:47.624Z,99.90
2019-04-21T00:05:36.509Z,99.90
2019-04-21T00:08:12.748Z,99.90
2019-04-21T00:10:40.050Z,99.90
2019-04-21T00:13:07.035Z,99.90
2019-04-21T00:15:29.802Z,99.90
2019-04-21T00:18:00.619Z,99.90
2019-04-21T00:20:37.574Z,99.90
2019-04-21T00:23:13.031Z,99.90
2019-04-21T00:25:42.898Z,99.90
2019-04-21T00:28:25.175Z,99.90
2019-04-21T00:30:54.556Z,99.90
2019-04-21T00:33:09.182Z,99.90
2019-04-21T00:35:41.414Z,99.90
2019-04-21T00:38:24.760Z,99.90
2019-04-21T00:41:01.201Z,99.90
2019-04-21T00:43:23.503Z,99.90
2019-04-21T00:45:48.190Z,99.90
2019-04-21T00:48:32.913Z,99.90
2019-04-21T00:51:19.838Z,99.90
2019-04-21T00:53:51.655Z,99.90
2019-04-21T00:56:17.693Z,99.90
2019-04-21T00:58:49.871Z,99.90
2019-04-21T01:01:15.058Z,99.90
2019-04-21T01:03:53.085Z,99.90
2019-04-21T01:06:22.859Z,99.90
2019-04-21T01:08:49.912Z,99.90
2019-04-21T01:11:19.770Z,99.90
2019-04-21T01:13:54.682Z,99.90
2019-04-21T01:16:27.269Z,99.90
2019-04-21T01:18:51.825Z,99.90
2019-04-21T01:21:13.628Z,99.90
2019-04-21T01:23:35.749Z,99.90
2019-04-21T01:26:18.007Z,99.90
2019-04-21T01:28:58.401Z,99.90
2019-04-21T01:31:22.510Z,99.90
2019-04-21T01:34:05.621Z,99.90
2019-04-21T01:36:30.695Z,99.90
2019-04-21T01:39:05.327Z,99.90
2019-04-21T01:41:42.319Z,99.90
2019-04-21T01:44:01.541Z,99.90
2019-04-21T01:46:33.709Z,99.90
2019-04-21T01:49:01.516Z,99.90
2019-04-21T01:51:45.346Z,99.90
2019-04-21T01:54:33.126Z,99.90
2019-04-21T01:57:15.296Z,99.90
2019-04-21T01:59:39.630Z,99.90
2019-04-21T02:02:21.550Z,99.90
2019-04-21T02:04:49.992Z,99.90
2019-04-21T02:07:17.702Z,99.90
2019-04-21T02:09:51.291Z,99.90
2019-04-21T02:12:20.863Z,99.90
2019-04-21T02:14:59.944Z,99.90
2019-04-21T02:17:23.333Z,99.90
2019-04-21T02:19:53.478Z,99.90
2019-04-21T02:22:27.185Z,99.90
2019-04-21T02:25:03.001Z,99.90
2019-04-21T02:27:31.033Z,99.90
2019-04-21T02:29:59.806Z,99.90
2019-04-21T02:32:44.298Z,99.90
2019-04-21T02:37:46.908Z,99.90
2019-04-21T02:40:29.733Z,99.90
2019-04-21T02:42:46.627Z,99.90
2019-04-21T02:45:16.950Z,99.90
2019-04-21T02:48:06.915Z,99.90
2019-04-21T02:50:19.035Z,99.90
2019-04-21T02:55:14.746Z,99.90
2019-04-21T02:57:59.358Z,99.90
2019-04-21T03:03:36.372Z,99.90
2019-04-21T03:06:25.123Z,99.90
2019-04-21T03:08:44.758Z,99.90
2019-04-21T03:11:17.438Z,99.90
2019-04-21T03:21:18.867Z,99.90
2019-04-21T03:23:56.225Z,99.90
2019-04-21T03:28:55.676Z,99.90
2019-04-21T03:31:44.801Z,99.90
2019-04-21T03:38:46.962Z,99.90
2019-04-21T03:49:02.336Z,99.90
2019-04-21T03:51:25.676Z,99.90
2019-04-21T03:53:59.701Z,99.90
2019-04-21T03:56:50.938Z,99.90
2019-04-21T04:01:58.079Z,99.90
2019-04-21T04:04:37.196Z,99.90
2019-04-21T04:07:39.651Z,99.90
2019-04-21T04:10:02.908Z,99.90
2019-04-21T04:12:32.972Z,99.90
2019-04-21T04:20:06.065Z,99.90
2019-04-21T04:22:37.951Z,99.90
2019-04-21T04:25:10.690Z,99.90
2019-04-21T04:30:14.534Z,99.90
2019-04-21T04:35:26.418Z,99.90
2019-04-21T04:40:48.553Z,99.90
2019-04-21T04:43:16.084Z,99.90
2019-04-21T04:45:38.766Z,99.90
2019-04-21T04:53:31.051Z,99.90
2019-04-21T04:55:51.013Z,99.90
2019-04-21T05:00:43.112Z,99.90
2019-04-21T05:03:26.335Z,99.90
2019-04-21T05:09:10.863Z,99.90
2019-04-21T05:14:07.647Z,99.90
2019-04-21T05:21:40.500Z,99.90
2019-04-21T05:23:55.812Z,99.90
2019-04-21T05:26:34.036Z,99.90
2019-04-21T05:28:59.143Z,99.90
2019-04-21T05:31:51.138Z,99.90
2019-04-21T05:34:22.001Z,99.90
2019-04-21T05:37:07.501Z,99.90
2019-04-21T05:39:47.998Z,99.90
2019-04-21T05:42:22.763Z,99.90
2019-04-21T05:44:58.098Z,99.90
2019-04-21T05:47:57.986Z,99.90
2019-04-21T05:50:11.411Z,99.90
2019-04-21T05:52:51.624Z,99.90
2019-04-21T05:55:34.340Z,99.90
2019-04-21T05:57:59.978Z,99.90
2019-04-21T06:00:39.704Z,99.90
2019-04-21T06:03:06.992Z,99.90
2019-04-21T06:08:09.862Z,99.90
2019-04-21T06:10:43.542Z,99.90
2019-04-21T06:13:17.049Z,99.90
2019-04-21T06:15:51.302Z,99.90
2019-04-21T06:18:22.389Z,99.90
2019-04-21T06:20:47.973Z,99.90
2019-04-21T06:23:21.316Z,99.90
2019-04-21T06:28:19.285Z,99.90
2019-04-21T06:30:59.679Z,99.90
2019-04-21T06:33:24.076Z,99.90
2019-04-21T06:39:00.327Z,99.90
2019-04-21T06:41:27.638Z,96.40
2019-04-21T06:43:56.324Z,93.90
2019-04-21T06:46:25.615Z,92.80
2019-04-21T06:48:58.712Z,88.60
2019-04-21T06:51:35.771Z,88.90
2019-04-21T06:54:02.103Z,90.30
2019-04-21T06:56:32.136Z,90.10
2019-04-21T06:58:56.181Z,84.10
2019-04-21T07:01:33.232Z,79.30
2019-04-21T07:04:09.904Z,78.80
2019-04-21T07:06:37.284Z,78.00
2019-04-21T07:09:20.173Z,80.40
2019-04-21T07:11:33.714Z,81.60
2019-04-21T07:14:22.618Z,82.90
2019-04-21T07:16:38.788Z,83.50
2019-04-21T07:19:12.736Z,79.90
2019-04-21T07:21:38.680Z,78.80
2019-04-21T07:24:14.188Z,77.00
2019-04-21T07:26:47.620Z,76.60
2019-04-21T07:29:14.284Z,82.10
2019-04-21T07:31:48.204Z,82.30
2019-04-21T07:34:19.625Z,83.90
2019-04-21T07:36:51.909Z,84.70
2019-04-21T07:39:10.383Z,85.40
2019-04-21T07:41:45.344Z,77.80
2019-04-21T07:44:09.142Z,76.40
2019-04-21T07:46:38.526Z,74.00
2019-04-21T07:49:43.635Z,73.70
2019-04-21T07:52:53.351Z,73.90
2019-04-21T07:57:36.862Z,72.20
2019-04-21T08:02:40.355Z,69.00
2019-04-21T08:05:13.490Z,65.30
2019-04-21T08:10:11.617Z,65.60
2019-04-21T08:12:41.926Z,63.30
2019-04-21T08:15:24.951Z,65.30
2019-04-21T08:17:48.998Z,64.80
2019-04-21T08:20:15.680Z,63.10
2019-04-21T08:22:51.008Z,61.30
2019-04-21T08:25:21.891Z,59.10
2019-04-21T08:30:26.151Z,56.00
2019-04-21T08:33:02.476Z,56.90
2019-04-21T08:37:55.314Z,56.20
2019-04-21T08:40:40.907Z,54.80
2019-04-21T08:43:01.170Z,56.20
2019-04-21T08:45:35.736Z,56.60
2019-04-21T08:48:04.674Z,55.40
2019-04-21T08:50:34.304Z,54.80
2019-04-21T08:53:07.924Z,52.80
2019-04-21T08:56:10.537Z,53.20
2019-04-21T08:58:52.178Z,53.50
2019-04-21T09:01:31.298Z,53.10
2019-04-21T09:04:10.705Z,52.90
2019-04-21T09:09:14.374Z,51.10
2019-04-21T09:11:37.595Z,51.50
2019-04-21T09:14:07.556Z,51.60
2019-04-21T09:16:36.659Z,50.20
2019-04-21T09:19:12.915Z,49.80
2019-04-21T09:21:43.654Z,49.30
2019-04-21T09:24:16.084Z,48.30
2019-04-21T09:26:46.119Z,47.30
2019-04-21T09:29:10.841Z,47.10
2019-04-21T09:31:36.494Z,47.00
2019-04-21T09:34:04.789Z,49.30
2019-04-21T09:36:41.281Z,49.00
2019-04-21T09:39:10.834Z,49.70
2019-04-21T09:41:37.654Z,49.10
2019-04-21T09:44:08.754Z,48.70
2019-04-21T09:46:47.531Z,48.80
2019-04-21T09:49:13.525Z,50.10
2019-04-21T09:51:41.608Z,50.10
2019-04-21T09:54:20.366Z,50.00
2019-04-21T09:56:51.051Z,49.60
2019-04-21T09:59:20.810Z,47.10
2019-04-21T10:01:55.854Z,47.50
2019-04-21T10:04:16.413Z,46.80
2019-04-21T10:06:47.559Z,46.80
2019-04-21T10:09:19.828Z,48.90
2019-04-21T10:11:50.402Z,49.00
2019-04-21T10:14:21.993Z,46.90
2019-04-21T10:17:00.404Z,45.90
2019-04-21T10:19:31.906Z,45.40
2019-04-21T10:22:03.970Z,45.60
2019-04-21T10:24:34.006Z,43.50
2019-04-21T10:27:05.695Z,43.00
2019-04-21T10:29:39.120Z,44.20
2019-04-21T10:32:06.213Z,45.90
2019-04-21T10:34:36.771Z,45.50
2019-04-21T10:37:07.142Z,46.20
2019-04-21T10:39:37.747Z,46.60
2019-04-21T10:42:08.929Z,47.70
2019-04-21T10:44:38.941Z,48.50
2019-04-21T10:47:08.813Z,48.70
2019-04-21T10:49:38.249Z,48.80
2019-04-21T10:52:15.177Z,46.10
2019-04-21T10:55:06.783Z,45.30
2019-04-21T10:57:22.226Z,46.50
2019-04-21T10:59:54.164Z,46.90
2019-04-21T11:02:32.915Z,46.20
2019-04-21T11:05:02.994Z,46.30
2019-04-21T11:08:12.546Z,45.20
2019-04-21T11:10:36.026Z,44.80
2019-04-21T11:13:05.519Z,43.90
2019-04-21T11:15:35.111Z,43.60
2019-04-21T11:18:06.047Z,43.80
2019-04-21T11:20:37.149Z,42.10
2019-04-21T11:23:07.949Z,42.60
2019-04-21T11:25:37.806Z,43.90
2019-04-21T11:28:08.923Z,44.70
2019-04-21T11:30:38.647Z,43.70
2019-04-21T11:33:09.098Z,43.40
2019-04-21T11:35:39.339Z,42.90
2019-04-21T11:38:19.040Z,42.50
2019-04-21T11:40:45.598Z,42.70
2019-04-21T11:43:15.797Z,42.00
2019-04-21T11:45:46.301Z,41.60
2019-04-21T11:48:21.938Z,42.80
2019-04-21T11:50:50.961Z,43.00
2019-04-21T11:53:19.417Z,43.90
2019-04-21T11:55:50.128Z,43.90
2019-04-21T11:58:18.389Z,44.10
2019-04-21T12:00:50.799Z,45.00
2019-04-21T12:03:20.511Z,47.10
2019-04-21T12:05:51.199Z,49.00
2019-04-21T12:08:27.194Z,48.10
2019-04-21T12:10:49.675Z,48.10
2019-04-21T12:13:18.284Z,48.80
2019-04-21T12:15:49.935Z,48.30
2019-04-21T12:18:19.696Z,48.40
2019-04-21T12:20:49.278Z,48.80
2019-04-21T12:23:18.412Z,48.00
2019-04-21T12:25:49.446Z,48.90
2019-04-21T12:28:18.009Z,49.10
2019-04-21T12:30:49.511Z,49.30
2019-04-21T12:33:38.142Z,49.60
2019-04-21T12:36:07.508Z,49.30
2019-04-21T12:38:44.615Z,48.50
2019-04-21T12:41:06.605Z,49.20
2019-04-21T12:43:35.097Z,49.90
2019-04-21T12:46:04.221Z,50.20
2019-04-21T12:48:33.809Z,50.20
2019-04-21T12:51:03.760Z,50.90
2019-04-21T12:53:33.859Z,50.40
2019-04-21T12:56:02.764Z,49.00
2019-04-21T12:58:31.197Z,48.00
2019-04-21T13:01:00.831Z,47.70
2019-04-21T13:03:30.406Z,46.80
2019-04-21T13:05:59.052Z,46.80
2019-04-21T13:08:27.511Z,45.00
2019-04-21T13:10:56.272Z,44.80
2019-04-21T13:13:26.036Z,46.00
2019-04-21T13:15:55.729Z,45.40
2019-04-21T13:18:24.338Z,45.40
2019-04-21T13:20:54.025Z,46.20
2019-04-21T13:23:23.096Z,46.30
2019-04-21T13:25:51.965Z,47.00
2019-04-21T13:28:20.895Z,48.00
2019-04-21T13:30:50.651Z,48.70
2019-04-21T13:33:19.184Z,49.30
2019-04-21T13:35:48.828Z,49.10
2019-04-21T13:38:26.948Z,49.60
2019-04-21T13:41:27.358Z,49.50
2019-04-21T13:43:43.345Z,50.40
2019-04-21T13:46:12.136Z,49.90
2019-04-21T13:48:42.371Z,50.00
2019-04-21T13:51:11.192Z,50.40
2019-04-21T13:53:39.967Z,51.30
2019-04-21T13:56:08.962Z,50.20
2019-04-21T13:58:38.017Z,50.20
2019-04-21T14:01:07.912Z,50.50
2019-04-21T14:03:37.540Z,49.50
2019-04-21T14:06:06.624Z,50.20
2019-04-21T14:08:37.233Z,49.70
2019-04-21T14:11:07.196Z,49.90
2019-04-21T14:13:36.440Z,49.40
2019-04-21T14:16:06.258Z,50.00
2019-04-21T14:18:34.660Z,48.90
2019-04-21T14:21:03.512Z,48.50
2019-04-21T14:23:37.896Z,48.50
2019-04-21T14:26:02.233Z,48.90
2019-04-21T14:28:30.658Z,48.70
2019-04-21T14:30:59.076Z,49.30
2019-04-21T14:33:27.888Z,49.80
2019-04-21T14:35:56.840Z,51.00
2019-04-21T14:38:26.701Z,53.40
2019-04-21T14:40:56.499Z,63.60
2019-04-21T14:43:26.039Z,62.60
2019-04-21T14:46:09.405Z,64.20
2019-04-21T14:49:03.595Z,62.40
2019-04-21T14:51:38.929Z,65.90
2019-04-21T14:54:18.252Z,65.00
2019-04-21T14:56:47.285Z,69.60
2019-04-21T14:59:17.119Z,71.30
2019-04-21T15:01:46.325Z,78.70
2019-04-21T15:04:17.276Z,73.30
2019-04-21T15:06:45.529Z,76.40
2019-04-21T15:09:15.275Z,99.90
2019-04-21T15:11:44.341Z,99.90
2019-04-21T15:14:13.790Z,99.90
2019-04-21T15:16:42.829Z,99.90
2019-04-21T15:19:12.737Z,99.90
2019-04-21T15:21:42.510Z,99.90
2019-04-21T15:24:12.195Z,99.90
2019-04-21T15:26:44.313Z,99.90
2019-04-21T15:29:13.325Z,99.90
2019-04-21T15:31:44.669Z,99.90
2019-04-21T15:34:13.009Z,99.90
2019-04-21T15:36:41.933Z,99.90
2019-04-21T15:39:11.919Z,99.90
2019-04-21T15:41:40.794Z,99.90
2019-04-21T15:44:09.937Z,99.90
2019-04-21T15:46:39.928Z,99.90
2019-04-21T15:49:09.180Z,99.90
2019-04-21T15:51:38.061Z,99.90
2019-04-21T15:54:06.861Z,99.90
2019-04-21T15:56:47.062Z,99.90
2019-04-21T15:59:33.126Z,99.90
2019-04-21T16:02:20.541Z,99.90
2019-04-21T16:04:48.906Z,99.90
2019-04-21T16:07:18.069Z,99.90
2019-04-21T16:09:48.091Z,99.90
2019-04-21T16:12:17.808Z,99.90
2019-04-21T16:14:46.959Z,99.90
2019-04-21T16:17:17.014Z,99.90
2019-04-21T16:19:45.915Z,99.90
2019-04-21T16:22:14.758Z,99.90
2019-04-21T16:24:44.048Z,99.90
2019-04-21T16:27:12.691Z,99.90
2019-04-21T16:29:41.765Z,99.90
2019-04-21T16:32:11.518Z,99.90
2019-04-21T16:34:50.158Z,99.90
2019-04-21T16:37:11.860Z,99.90
2019-04-21T16:39:41.285Z,99.90
2019-04-21T16:42:10.213Z,99.90
2019-04-21T16:44:38.938Z,99.90
2019-04-21T16:47:07.783Z,99.90
2019-04-21T16:49:36.306Z,99.90
2019-04-21T16:52:18.719Z,99.90
2019-04-21T16:54:49.905Z,99.90
2019-04-21T16:57:26.041Z,99.90
2019-04-21T17:00:02.438Z,99.90
2019-04-21T17:02:32.430Z,99.90
2019-04-21T17:05:02.496Z,99.90
2019-04-21T17:07:32.336Z,99.90
2019-04-21T17:10:02.407Z,99.90
2019-04-21T17:12:31.102Z,99.90
2019-04-21T17:15:15.480Z,99.90
2019-04-21T17:17:52.750Z,99.90
2019-04-21T17:20:13.567Z,99.90
2019-04-21T17:22:31.565Z,99.90
2019-04-21T17:25:00.348Z,99.90
2019-04-21T17:27:29.206Z,99.90
2019-04-21T17:29:58.881Z,99.90
2019-04-21T17:32:34.306Z,99.90
2019-04-21T17:34:58.038Z,99.90
2019-04-21T17:37:29.225Z,99.90
2019-04-21T17:39:59.098Z,99.90
2019-04-21T17:42:36.300Z,99.90
2019-04-21T17:44:59.353Z,99.90
2019-04-21T17:47:41.545Z,99.90
2019-04-21T17:50:25.491Z,99.90
2019-04-21T17:53:05.226Z,99.90
2019-04-21T17:55:33.811Z,99.90
2019-04-21T17:58:16.242Z,99.90
2019-04-21T18:03:31.549Z,99.90
2019-04-21T18:05:50.348Z,99.90
2019-04-21T18:08:23.410Z,99.90
2019-04-21T18:10:47.747Z,99.90
2019-04-21T18:13:09.997Z,99.90
2019-04-21T18:15:47.024Z,99.90
2019-04-21T18:18:05.204Z,99.90
2019-04-21T18:20:35.402Z,99.90
2019-04-21T18:23:46.130Z,99.90
2019-04-21T18:26:08.200Z,99.90
2019-04-21T18:28:32.634Z,99.90
2019-04-21T18:31:08.142Z,99.90
2019-04-21T18:33:42.299Z,99.90
2019-04-21T18:36:34.071Z,99.90
2019-04-21T18:39:33.936Z,99.90
2019-04-21T18:42:09.308Z,99.90
2019-04-21T18:45:12.805Z,99.90
2019-04-21T18:47:31.870Z,99.90
2019-04-21T18:49:54.318Z,99.90
2019-04-21T18:52:45.735Z,99.90
2019-04-21T18:55:14.194Z,99.90
2019-04-21T18:57:35.577Z,99.90
2019-04-21T19:00:11.505Z,99.90
2019-04-21T19:02:43.935Z,99.90
2019-04-21T19:05:11.468Z,99.90
2019-04-21T19:07:53.218Z,99.90
2019-04-21T19:15:17.814Z,99.90
2019-04-21T19:18:24.078Z,99.90
2019-04-21T19:20:26.108Z,99.90
2019-04-21T19:22:47.172Z,99.90
2019-04-21T19:25:24.045Z,99.90
2019-04-21T19:27:50.209Z,99.90
2019-04-21T19:30:28.805Z,99.90
2019-04-21T19:32:51.392Z,99.90
2019-04-21T19:35:07.874Z,99.90
2019-04-21T19:37:43.983Z,99.90
2019-04-21T19:40:25.243Z,99.90
2019-04-21T19:42:47.986Z,99.90
2019-04-21T19:45:22.206Z,99.90
2019-04-21T19:47:53.864Z,99.90
2019-04-21T19:50:30.759Z,99.90
2019-04-21T19:52:48.636Z,99.90
2019-04-21T19:55:08.062Z,99.90
2019-04-21T19:57:36.692Z,99.90
2019-04-21T20:00:07.743Z,99.90
2019-04-21T20:02:36.765Z,99.90
2019-04-21T20:05:11.418Z,99.90
2019-04-21T20:07:56.301Z,99.90
2019-04-21T20:10:27.321Z,99.90
2019-04-21T20:12:55.604Z,99.90
2019-04-21T20:15:37.386Z,99.90
2019-04-21T20:17:54.085Z,99.90
2019-04-21T20:20:09.032Z,99.90
2019-04-21T20:22:43.301Z,99.90
2019-04-21T20:25:14.097Z,99.90
2019-04-21T20:27:50.978Z,99.90
2019-04-21T20:30:24.653Z,99.90
2019-04-21T20:32:55.978Z,99.90
2019-04-21T20:35:51.936Z,99.90
2019-04-21T20:37:55.017Z,99.90
2019-04-21T20:40:19.672Z,99.90
2019-04-21T20:42:54.085Z,99.90
2019-04-21T20:47:44.723Z,99.90
2019-04-21T20:50:22.089Z,99.90
2019-04-21T20:52:58.495Z,99.90
2019-04-21T20:55:20.045Z,99.90
2019-04-21T20:57:51.533Z,99.90
2019-04-21T21:00:32.366Z,99.90
2019-04-21T21:03:02.592Z,99.90
2019-04-21T21:05:27.607Z,99.90
2019-04-21T21:08:03.597Z,99.90
2019-04-21T21:10:26.131Z,99.90
2019-04-21T21:13:06.263Z,99.90
2019-04-21T21:15:29.157Z,99.90
2019-04-21T21:18:05.829Z,99.90
2019-04-21T21:20:31.063Z,99.90
2019-04-21T21:22:56.246Z,99.90
2019-04-21T21:25:33.803Z,99.90
2019-04-21T21:27:51.771Z,99.90
2019-04-21T21:30:27.033Z,99.90
2019-04-21T21:33:08.398Z,99.90
2019-04-21T21:35:28.293Z,99.90
2019-04-21T21:37:59.692Z,99.90
2019-04-21T21:40:30.423Z,99.90
2019-04-21T21:42:45.755Z,99.90
2019-04-21T21:45:18.358Z,99.90
2019-04-21T21:47:59.665Z,99.90
2019-04-21T21:50:24.159Z,99.90
2019-04-21T21:52:56.596Z,99.90
2019-04-21T21:55:15.908Z,99.90
2019-04-21T21:57:48.677Z,99.90
2019-04-21T22:00:15.540Z,99.90
2019-04-21T22:02:50.814Z,99.90
2019-04-21T22:05:22.062Z,99.90
2019-04-21T22:07:46.670Z,99.90
2019-04-21T22:10:15.956Z,99.90
2019-04-21T22:12:54.984Z,99.90
2019-04-21T22:15:19.682Z,99.90
2019-04-21T22:18:09.357Z,99.90
2019-04-21T22:20:35.049Z,99.90
2019-04-21T22:22:56.148Z,99.90
2019-04-21T22:25:22.884Z,99.90
2019-04-21T22:27:46.037Z,99.90
2019-04-21T22:30:14.851Z,99.90
2019-04-21T22:32:52.783Z,99.90
2019-04-21T22:35:24.910Z,99.90
2019-04-21T22:37:58.024Z,99.90
2019-04-21T22:40:25.903Z,99.90
2019-04-21T22:42:57.972Z,99.90
2019-04-21T22:45:15.512Z,99.90
2019-04-21T22:47:45.148Z,99.90
2019-04-21T22:50:24.540Z,99.90
2019-04-21T22:52:58.412Z,99.90
2019-04-21T22:55:27.303Z,99.90
2019-04-21T22:57:56.927Z,99.90
2019-04-21T23:00:24.049Z,99.90
2019-04-21T23:03:01.363Z,99.90
2019-04-21T23:05:30.203Z,99.90
2019-04-21T23:07:58.619Z,99.90
2019-04-21T23:10:23.632Z,99.90
2019-04-21T23:12:52.232Z,99.90
2019-04-21T23:15:24.643Z,99.90
2019-04-21T23:18:09.063Z,99.90
2019-04-21T23:20:40.213Z,99.90
2019-04-21T23:23:12.080Z,99.90
2019-04-21T23:25:39.236Z,99.90
2019-04-21T23:28:09.111Z,99.90
2019-04-21T23:30:52.864Z,99.90
2019-04-21T23:33:02.459Z,99.90
2019-04-21T23:35:30.463Z,99.90
2019-04-21T23:37:58.705Z,99.90
2019-04-21T23:40:27.396Z,99.90
2019-04-21T23:43:00.069Z,99.90
2019-04-21T23:45:33.478Z,99.90
2019-04-21T23:48:10.870Z,99.90
2019-04-21T23:50:37.881Z,99.90
2019-04-21T23:52:57.468Z,99.90
2019-04-21T23:55:27.293Z,99.90
2019-04-21T23:58:06.101Z,99.90
